sensor_id;sensor_type;location;lat;lon;timestamp;pressure;altitude;pressure_sealevel;temperature;humidity
74921;BME280;63483;47.384;8.860;2022-11-20T00:01:23;94180.31;;;4.12;52.20
74921;BME280;63483;47.384;8.860;2022-11-20T00:03:51;94186.34;;;4.12;52.37
74921;BME280;63483;47.384;8.860;2022-11-20T00:06:18;94183.59;;;4.14;52.14
74921;BME280;63483;47.384;8.860;2022-11-20T00:08:44;94186.19;;;4.14;52.32
74921;BME280;63483;47.384;8.860;2022-11-20T00:11:12;94183.59;;;4.14;52.73
74921;BME280;63483;47.384;8.860;2022-11-20T00:13:38;94185.25;;;4.15;52.40
74921;BME280;63483;47.384;8.860;2022-11-20T00:16:06;94189.44;;;4.16;52.64
74921;BME280;63483;47.384;8.860;2022-11-20T00:18:36;94189.13;;;4.19;52.30
74921;BME280;63483;47.384;8.860;2022-11-20T00:21:07;94190.91;;;4.18;52.24
74921;BME280;63483;47.384;8.860;2022-11-20T00:23:33;94195.31;;;4.18;52.34
74921;BME280;63483;47.384;8.860;2022-11-20T00:26:07;94195.22;;;4.10;52.01
74921;BME280;63483;47.384;8.860;2022-11-20T00:28:33;94202.41;;;4.16;51.73
74921;BME280;63483;47.384;8.860;2022-11-20T00:31:07;94199.16;;;4.14;52.22
74921;BME280;63483;47.384;8.860;2022-11-20T00:33:33;94198.19;;;4.15;52.21
74921;BME280;63483;47.384;8.860;2022-11-20T00:36:01;94199.81;;;4.16;52.29
74921;BME280;63483;47.384;8.860;2022-11-20T00:38:27;94197.91;;;4.18;52.27
74921;BME280;63483;47.384;8.860;2022-11-20T00:41:00;94198.41;;;4.21;52.44
74921;BME280;63483;47.384;8.860;2022-11-20T00:43:26;94199.34;;;4.20;52.25
74921;BME280;63483;47.384;8.860;2022-11-20T00:45:58;94201.13;;;4.20;52.39
74921;BME280;63483;47.384;8.860;2022-11-20T00:48:24;94202.09;;;4.19;52.28
74921;BME280;63483;47.384;8.860;2022-11-20T00:50:49;94213.78;;;4.23;52.33
74921;BME280;63483;47.384;8.860;2022-11-20T00:53:15;94207.66;;;4.24;52.42
74921;BME280;63483;47.384;8.860;2022-11-20T00:55:40;94205.72;;;4.26;52.20
74921;BME280;63483;47.384;8.860;2022-11-20T00:58:06;94207.34;;;4.27;52.20
74921;BME280;63483;47.384;8.860;2022-11-20T01:00:31;94213.78;;;4.23;52.31
74921;BME280;63483;47.384;8.860;2022-11-20T01:02:56;94209.72;;;4.20;52.27
74921;BME280;63483;47.384;8.860;2022-11-20T01:05:22;94210.53;;;4.21;52.12
74921;BME280;63483;47.384;8.860;2022-11-20T01:07:47;94204.53;;;4.20;52.43
74921;BME280;63483;47.384;8.860;2022-11-20T01:10:12;94213.78;;;4.23;52.04
74921;BME280;63483;47.384;8.860;2022-11-20T01:12:38;94208.91;;;4.20;51.96
74921;BME280;63483;47.384;8.860;2022-11-20T01:15:03;94212.16;;;4.22;52.30
74921;BME280;63483;47.384;8.860;2022-11-20T01:17:31;94208.59;;;4.23;51.46
74921;BME280;63483;47.384;8.860;2022-11-20T01:19:56;94207.28;;;4.19;51.87
74921;BME280;63483;47.384;8.860;2022-11-20T01:22:21;94206.47;;;4.18;51.47
74921;BME280;63483;47.384;8.860;2022-11-20T01:24:47;94207.28;;;4.19;51.55
74921;BME280;63483;47.384;8.860;2022-11-20T01:27:12;94203.72;;;4.20;51.64
74921;BME280;63483;47.384;8.860;2022-11-20T01:29:37;94205.38;;;4.21;51.61
74921;BME280;63483;47.384;8.860;2022-11-20T01:32:03;94208.91;;;4.20;51.97
74921;BME280;63483;47.384;8.860;2022-11-20T01:34:28;94207.97;;;4.21;51.86
74921;BME280;63483;47.384;8.860;2022-11-20T01:36:54;94218.19;;;4.22;51.77
74921;BME280;63483;47.384;8.860;2022-11-20T01:39:21;94216.38;;;4.23;51.89
74921;BME280;63483;47.384;8.860;2022-11-20T01:41:48;94212.16;;;4.22;52.02
74921;BME280;63483;47.384;8.860;2022-11-20T01:44:55;94218.97;;;4.23;51.93
74921;BME280;63483;47.384;8.860;2022-11-20T01:52:45;94224.16;;;4.23;51.71
74921;BME280;63483;47.384;8.860;2022-11-20T01:55:18;94226.09;;;4.21;52.09
74921;BME280;63483;47.384;8.860;2022-11-20T01:57:44;94227.53;;;2.68;47.45
74921;BME280;63483;47.384;8.860;2022-11-20T02:00:13;94228.50;;;1.71;48.26
74921;BME280;63483;47.384;8.860;2022-11-20T02:02:41;94229.44;;;1.00;49.25
74921;BME280;63483;47.384;8.860;2022-11-20T02:05:19;94226.53;;;0.52;49.88
74921;BME280;63483;47.384;8.860;2022-11-20T02:07:48;94228.19;;;0.11;50.34
74921;BME280;63483;47.384;8.860;2022-11-20T02:10:14;94219.09;;;-0.14;52.32
74921;BME280;63483;47.384;8.860;2022-11-20T02:12:39;94224.78;;;-0.10;51.99
74921;BME280;63483;47.384;8.860;2022-11-20T02:15:23;94219.38;;;-0.28;51.12
74921;BME280;63483;47.384;8.860;2022-11-20T02:17:48;94223.19;;;-0.11;53.36
74921;BME280;63483;47.384;8.860;2022-11-20T02:20:14;94227.94;;;-0.07;65.04
74921;BME280;63483;47.384;8.860;2022-11-20T02:22:54;94235.47;;;-0.47;57.09
74921;BME280;63483;47.384;8.860;2022-11-20T02:25:21;94228.75;;;-0.71;55.20
74921;BME280;63483;47.384;8.860;2022-11-20T02:27:48;94236.72;;;-0.74;56.16
74921;BME280;63483;47.384;8.860;2022-11-20T02:30:14;94233.94;;;-0.82;56.17
74921;BME280;63483;47.384;8.860;2022-11-20T02:32:39;94236.28;;;-0.91;56.27
74921;BME280;63483;47.384;8.860;2022-11-20T02:35:35;94236.03;;;-1.10;55.26
74921;BME280;63483;47.384;8.860;2022-11-20T02:37:56;94246.75;;;-0.71;55.07
74921;BME280;63483;47.384;8.860;2022-11-20T02:40:22;94238.41;;;-0.96;53.31
74921;BME280;63483;47.384;8.860;2022-11-20T02:42:51;94240.25;;;-0.98;52.84
74921;BME280;63483;47.384;8.860;2022-11-20T02:45:17;94238.03;;;-0.47;53.99
74921;BME280;63483;47.384;8.860;2022-11-20T02:47:42;94235.03;;;-0.64;52.02
74921;BME280;63483;47.384;8.860;2022-11-20T02:50:07;94231.53;;;-0.52;51.77
74921;BME280;63483;47.384;8.860;2022-11-20T02:52:33;94234.84;;;-0.07;52.50
74921;BME280;63483;47.384;8.860;2022-11-20T02:54:58;94236.47;;;0.15;52.89
74921;BME280;63483;47.384;8.860;2022-11-20T02:57:23;94236.94;;;0.20;48.90
74921;BME280;63483;47.384;8.860;2022-11-20T02:59:49;94235.53;;;0.37;48.58
74921;BME280;63483;47.384;8.860;2022-11-20T03:02:14;94234.06;;;0.44;47.95
74921;BME280;63483;47.384;8.860;2022-11-20T03:04:39;94236.66;;;0.75;51.82
74921;BME280;63483;47.384;8.860;2022-11-20T03:07:05;94229.19;;;1.13;54.77
74921;BME280;63483;47.384;8.860;2022-11-20T03:09:30;94232.28;;;1.47;54.70
74921;BME280;63483;47.384;8.860;2022-11-20T03:11:56;94231.50;;;1.76;53.63
74921;BME280;63483;47.384;8.860;2022-11-20T03:14:21;94227.69;;;2.00;53.98
74921;BME280;63483;47.384;8.860;2022-11-20T03:16:47;94231.88;;;2.20;53.61
74921;BME280;63483;47.384;8.860;2022-11-20T03:19:12;94223.69;;;2.35;53.34
74921;BME280;63483;47.384;8.860;2022-11-20T03:21:38;94220.41;;;2.52;53.45
74921;BME280;63483;47.384;8.860;2022-11-20T03:24:04;94223.50;;;2.65;52.88
74921;BME280;63483;47.384;8.860;2022-11-20T03:26:30;94227.53;;;2.78;52.82
74921;BME280;63483;47.384;8.860;2022-11-20T03:28:57;94228.97;;;2.90;52.69
74921;BME280;63483;47.384;8.860;2022-11-20T03:31:32;94224.84;;;2.97;52.27
74921;BME280;63483;47.384;8.860;2022-11-20T03:33:58;94219.09;;;3.03;52.32
74921;BME280;63483;47.384;8.860;2022-11-20T03:36:24;94229.56;;;3.12;52.27
74921;BME280;63483;47.384;8.860;2022-11-20T03:38:50;94227.34;;;3.17;52.16
74921;BME280;63483;47.384;8.860;2022-11-20T03:41:22;94229.38;;;3.23;52.42
74921;BME280;63483;47.384;8.860;2022-11-20T03:43:49;94230.03;;;3.25;52.20
74921;BME280;63483;47.384;8.860;2022-11-20T03:46:16;94236.56;;;3.29;52.11
74921;BME280;63483;47.384;8.860;2022-11-20T03:48:41;94234.63;;;3.31;52.23
74921;BME280;63483;47.384;8.860;2022-11-20T03:53:33;94248.94;;;3.35;52.00
74921;BME280;63483;47.384;8.860;2022-11-20T03:55:58;94244.41;;;3.37;52.11
74921;BME280;63483;47.384;8.860;2022-11-20T03:58:24;94258.06;;;3.40;51.79
74921;BME280;63483;47.384;8.860;2022-11-20T04:00:49;94240.88;;;3.39;51.86
74921;BME280;63483;47.384;8.860;2022-11-20T04:03:14;94254.47;;;3.41;51.95
74921;BME280;63483;47.384;8.860;2022-11-20T04:05:39;94249.03;;;3.44;51.95
74921;BME280;63483;47.384;8.860;2022-11-20T04:08:05;94245.31;;;3.46;51.81
74921;BME280;63483;47.384;8.860;2022-11-20T04:10:30;94253.63;;;3.50;52.09
74921;BME280;63483;47.384;8.860;2022-11-20T04:12:55;94250.06;;;3.51;51.78
74921;BME280;63483;47.384;8.860;2022-11-20T04:15:21;94244.63;;;3.54;51.59
74921;BME280;63483;47.384;8.860;2022-11-20T04:17:46;94247.22;;;3.54;51.69
74921;BME280;63483;47.384;8.860;2022-11-20T04:20:11;94246.22;;;3.55;51.68
74921;BME280;63483;47.384;8.860;2022-11-20T04:22:37;94246.09;;;3.57;51.93
74921;BME280;63483;47.384;8.860;2022-11-20T04:25:02;94239.16;;;3.57;52.00
74921;BME280;63483;47.384;8.860;2022-11-20T04:27:28;94236.56;;;3.57;51.70
74921;BME280;63483;47.384;8.860;2022-11-20T04:29:55;94233.28;;;3.55;51.83
74921;BME280;63483;47.384;8.860;2022-11-20T04:32:20;94233.13;;;3.57;51.62
74921;BME280;63483;47.384;8.860;2022-11-20T04:34:45;94229.59;;;3.58;51.54
74921;BME280;63483;47.384;8.860;2022-11-20T04:37:11;94236.25;;;3.60;51.69
74921;BME280;63483;47.384;8.860;2022-11-20T04:39:36;94237.88;;;3.61;51.44
74921;BME280;63483;47.384;8.860;2022-11-20T04:42:01;94239.38;;;3.64;51.43
74921;BME280;63483;47.384;8.860;2022-11-20T04:44:45;94239.50;;;3.62;51.47
74921;BME280;63483;47.384;8.860;2022-11-20T04:47:10;94235.28;;;3.61;51.25
74921;BME280;63483;47.384;8.860;2022-11-20T04:49:36;94239.66;;;3.61;51.71
74921;BME280;63483;47.384;8.860;2022-11-20T04:52:01;94241.44;;;3.60;51.72
74921;BME280;63483;47.384;8.860;2022-11-20T04:54:26;94237.88;;;3.61;51.59
74921;BME280;63483;47.384;8.860;2022-11-20T04:56:52;94246.31;;;3.63;51.67
74921;BME280;63483;47.384;8.860;2022-11-20T04:59:17;94226.25;;;3.65;51.76
74921;BME280;63483;47.384;8.860;2022-11-20T05:01:42;94234.97;;;3.64;51.85
74921;BME280;63483;47.384;8.860;2022-11-20T05:04:08;94233.88;;;3.67;51.84
74921;BME280;63483;47.384;8.860;2022-11-20T05:06:33;94232.13;;;3.67;51.69
74921;BME280;63483;47.384;8.860;2022-11-20T05:08:59;94230.34;;;3.68;51.75
74921;BME280;63483;47.384;8.860;2022-11-20T05:11:26;94229.41;;;3.69;51.73
74921;BME280;63483;47.384;8.860;2022-11-20T05:13:54;94237.97;;;3.69;51.62
74921;BME280;63483;47.384;8.860;2022-11-20T05:16:23;94234.44;;;3.70;51.76
74921;BME280;63483;47.384;8.860;2022-11-20T05:18:51;94233.75;;;3.68;51.69
74921;BME280;63483;47.384;8.860;2022-11-20T05:21:16;94239.06;;;3.67;51.61
74921;BME280;63483;47.384;8.860;2022-11-20T05:23:43;94237.16;;;3.69;51.63
74921;BME280;63483;47.384;8.860;2022-11-20T05:26:13;94233.59;;;3.70;51.57
74921;BME280;63483;47.384;8.860;2022-11-20T05:28:39;94250.78;;;3.71;51.68
74921;BME280;63483;47.384;8.860;2022-11-20T05:31:09;94246.25;;;3.73;51.85
74921;BME280;63483;47.384;8.860;2022-11-20T05:33:35;94242.84;;;3.72;51.70
74921;BME280;63483;47.384;8.860;2022-11-20T05:36:02;94243.50;;;3.75;51.81
74921;BME280;63483;47.384;8.860;2022-11-20T05:38:28;94247.72;;;3.76;51.74
74921;BME280;63483;47.384;8.860;2022-11-20T05:40:54;94247.44;;;3.79;51.87
74921;BME280;63483;47.384;8.860;2022-11-20T05:43:19;94249.88;;;3.80;51.75
74921;BME280;63483;47.384;8.860;2022-11-20T05:45:52;94244.69;;;3.80;51.46
74921;BME280;63483;47.384;8.860;2022-11-20T05:48:18;94242.41;;;3.77;51.81
74921;BME280;63483;47.384;8.860;2022-11-20T05:50:43;94253.56;;;3.78;51.49
74921;BME280;63483;47.384;8.860;2022-11-20T05:53:08;94250.03;;;3.79;50.86
74921;BME280;63483;47.384;8.860;2022-11-20T05:55:33;94245.78;;;3.78;51.30
74921;BME280;63483;47.384;8.860;2022-11-20T05:57:59;94248.38;;;3.78;51.34
74921;BME280;63483;47.384;8.860;2022-11-20T06:00:24;94257.16;;;3.77;51.35
74921;BME280;63483;47.384;8.860;2022-11-20T06:02:49;94258.09;;;3.76;51.14
74921;BME280;63483;47.384;8.860;2022-11-20T06:05:15;94265.88;;;3.76;51.21
74921;BME280;63483;47.384;8.860;2022-11-20T06:07:40;94265.22;;;3.74;51.24
74921;BME280;63483;47.384;8.860;2022-11-20T06:10:06;94260.97;;;3.72;51.06
74921;BME280;63483;47.384;8.860;2022-11-20T06:12:32;94263.88;;;3.69;50.90
74921;BME280;63483;47.384;8.860;2022-11-20T06:14:58;94258.97;;;3.66;51.21
74921;BME280;63483;47.384;8.860;2022-11-20T06:17:23;94267.31;;;2.57;47.77
74921;BME280;63483;47.384;8.860;2022-11-20T06:19:49;94261.94;;;1.53;46.50
74921;BME280;63483;47.384;8.860;2022-11-20T06:22:14;94265.47;;;0.80;47.44
74921;BME280;63483;47.384;8.860;2022-11-20T06:24:40;94255.19;;;0.38;50.14
74921;BME280;63483;47.384;8.860;2022-11-20T06:27:05;94261.81;;;0.10;49.88
74921;BME280;63483;47.384;8.860;2022-11-20T06:29:30;94261.16;;;-0.25;50.28
74921;BME280;63483;47.384;8.860;2022-11-20T06:31:55;94268.38;;;-0.19;50.58
74921;BME280;63483;47.384;8.860;2022-11-20T06:34:21;94258.31;;;-0.22;51.32
74921;BME280;63483;47.384;8.860;2022-11-20T06:36:46;94257.94;;;-0.17;51.46
74921;BME280;63483;47.384;8.860;2022-11-20T06:39:11;94257.81;;;-0.16;51.19
74921;BME280;63483;47.384;8.860;2022-11-20T06:41:37;94256.13;;;0.37;59.41
74921;BME280;63483;47.384;8.860;2022-11-20T06:44:04;94263.16;;;-0.07;58.07
74921;BME280;63483;47.384;8.860;2022-11-20T06:46:29;94266.31;;;-0.36;54.63
74921;BME280;63483;47.384;8.860;2022-11-20T06:48:54;94272.22;;;-0.57;53.69
74921;BME280;63483;47.384;8.860;2022-11-20T06:51:20;94282.06;;;-0.85;52.62
74921;BME280;63483;47.384;8.860;2022-11-20T06:53:46;94276.47;;;-1.01;52.74
74921;BME280;63483;47.384;8.860;2022-11-20T06:56:12;94281.69;;;-1.14;53.39
74921;BME280;63483;47.384;8.860;2022-11-20T06:58:37;94280.78;;;-1.24;53.31
74921;BME280;63483;47.384;8.860;2022-11-20T07:01:05;94290.25;;;-1.13;54.03
74921;BME280;63483;47.384;8.860;2022-11-20T07:03:31;94285.59;;;-1.20;53.51
74921;BME280;63483;47.384;8.860;2022-11-20T07:05:58;94293.28;;;-1.20;53.06
74921;BME280;63483;47.384;8.860;2022-11-20T07:08:24;94298.47;;;-0.97;53.69
74921;BME280;63483;47.384;8.860;2022-11-20T07:10:49;94295.88;;;-0.97;52.09
74921;BME280;63483;47.384;8.860;2022-11-20T07:13:15;94297.75;;;-0.88;51.90
74921;BME280;63483;47.384;8.860;2022-11-20T07:15:40;94296.28;;;-0.58;51.61
74921;BME280;63483;47.384;8.860;2022-11-20T07:18:05;94304.66;;;-0.22;51.72
74921;BME280;63483;47.384;8.860;2022-11-20T07:20:31;94303.50;;;0.03;52.54
74921;BME280;63483;47.384;8.860;2022-11-20T07:22:57;94305.72;;;0.29;51.76
74921;BME280;63483;47.384;8.860;2022-11-20T07:25:24;94308.69;;;0.46;51.31
74921;BME280;63483;47.384;8.860;2022-11-20T07:27:49;94307.97;;;0.65;51.33
74921;BME280;63483;47.384;8.860;2022-11-20T07:30:15;94316.78;;;0.83;50.02
74921;BME280;63483;47.384;8.860;2022-11-20T07:32:41;94311.72;;;1.03;50.34
74921;BME280;63483;47.384;8.860;2022-11-20T07:35:06;94318.84;;;1.20;50.38
74921;BME280;63483;47.384;8.860;2022-11-20T07:37:35;94310.00;;;1.44;53.59
74921;BME280;63483;47.384;8.860;2022-11-20T07:40:00;94314.25;;;1.65;53.04
74921;BME280;63483;47.384;8.860;2022-11-20T07:42:25;94316.72;;;1.86;52.39
74921;BME280;63483;47.384;8.860;2022-11-20T07:44:51;94320.69;;;2.00;53.51
74921;BME280;63483;47.384;8.860;2022-11-20T07:47:16;94314.09;;;0.95;55.23
74921;BME280;63483;47.384;8.860;2022-11-20T07:49:41;94313.41;;;0.62;52.65
74921;BME280;63483;47.384;8.860;2022-11-20T07:52:07;94316.91;;;0.18;51.61
74921;BME280;63483;47.384;8.860;2022-11-20T07:54:32;94317.72;;;-0.14;52.92
74921;BME280;63483;47.384;8.860;2022-11-20T07:56:57;94318.03;;;-0.39;53.04
74921;BME280;63483;47.384;8.860;2022-11-20T07:59:23;94324.50;;;-0.68;52.09
74921;BME280;63483;47.384;8.860;2022-11-20T08:01:48;94319.25;;;-0.77;52.77
74921;BME280;63483;47.384;8.860;2022-11-20T08:04:13;94318.75;;;-0.71;53.36
74921;BME280;63483;47.384;8.860;2022-11-20T08:06:41;94317.59;;;-0.56;54.09
74921;BME280;63483;47.384;8.860;2022-11-20T08:09:06;94316.63;;;-0.43;52.73
74921;BME280;63483;47.384;8.860;2022-11-20T08:11:32;94320.13;;;-0.44;53.49
74921;BME280;63483;47.384;8.860;2022-11-20T08:14:15;94319.66;;;-0.38;52.91
74921;BME280;63483;47.384;8.860;2022-11-20T08:16:46;94322.44;;;-0.30;52.56
74921;BME280;63483;47.384;8.860;2022-11-20T08:19:12;94328.00;;;-0.14;51.13
74921;BME280;63483;47.384;8.860;2022-11-20T08:21:38;94331.44;;;0.19;52.50
74921;BME280;63483;47.384;8.860;2022-11-20T08:24:04;94318.34;;;0.32;51.77
74921;BME280;63483;47.384;8.860;2022-11-20T08:26:30;94325.16;;;0.54;51.91
74921;BME280;63483;47.384;8.860;2022-11-20T08:28:57;94333.00;;;0.74;50.00
74921;BME280;63483;47.384;8.860;2022-11-20T08:31:23;94330.09;;;0.88;52.10
74921;BME280;63483;47.384;8.860;2022-11-20T08:33:50;94338.97;;;0.96;50.45
74921;BME280;63483;47.384;8.860;2022-11-20T08:36:16;94345.59;;;1.19;50.08
74921;BME280;63483;47.384;8.860;2022-11-20T08:38:42;94338.19;;;1.36;50.07
74921;BME280;63483;47.384;8.860;2022-11-20T08:41:07;94339.38;;;1.63;53.67
74921;BME280;63483;47.384;8.860;2022-11-20T08:43:56;94343.50;;;1.85;54.41
74921;BME280;63483;47.384;8.860;2022-11-20T08:46:24;94340.53;;;2.09;54.62
74921;BME280;63483;47.384;8.860;2022-11-20T08:48:49;94340.84;;;2.25;53.42
74921;BME280;63483;47.384;8.860;2022-11-20T08:51:15;94332.09;;;2.46;53.19
74921;BME280;63483;47.384;8.860;2022-11-20T08:53:41;94337.53;;;2.43;53.26
74921;BME280;63483;47.384;8.860;2022-11-20T08:56:07;94338.06;;;2.56;53.07
74921;BME280;63483;47.384;8.860;2022-11-20T08:58:32;94341.19;;;2.79;52.28
74921;BME280;63483;47.384;8.860;2022-11-20T09:00:58;94347.56;;;2.85;52.80
74921;BME280;63483;47.384;8.860;2022-11-20T09:03:23;94342.63;;;3.01;52.18
74921;BME280;63483;47.384;8.860;2022-11-20T09:05:49;94340.44;;;3.07;51.27
74921;BME280;63483;47.384;8.860;2022-11-20T09:08:14;94345.72;;;3.15;50.97
74921;BME280;63483;47.384;8.860;2022-11-20T09:10:40;94346.94;;;3.11;51.48
74921;BME280;63483;47.384;8.860;2022-11-20T09:13:05;94340.25;;;3.18;51.03
74921;BME280;63483;47.384;8.860;2022-11-20T09:15:31;94353.69;;;3.31;50.77
74921;BME280;63483;47.384;8.860;2022-11-20T09:17:58;94344.72;;;3.35;50.45
74921;BME280;63483;47.384;8.860;2022-11-20T09:20:25;94338.69;;;3.45;50.25
74921;BME280;63483;47.384;8.860;2022-11-20T09:22:51;94333.00;;;3.41;50.36
74921;BME280;63483;47.384;8.860;2022-11-20T09:25:17;94340.84;;;3.49;49.67
74921;BME280;63483;47.384;8.860;2022-11-20T09:27:43;94340.69;;;3.51;49.72
74921;BME280;63483;47.384;8.860;2022-11-20T09:30:12;94338.88;;;3.61;49.84
74921;BME280;63483;47.384;8.860;2022-11-20T09:32:38;94338.31;;;3.67;49.57
74921;BME280;63483;47.384;8.860;2022-11-20T09:35:04;94342.44;;;3.60;49.40
74921;BME280;63483;47.384;8.860;2022-11-20T09:37:29;94353.56;;;3.70;49.31
74921;BME280;63483;47.384;8.860;2022-11-20T09:39:55;94360.19;;;3.83;49.40
74921;BME280;63483;47.384;8.860;2022-11-20T09:42:31;94342.41;;;3.88;49.11
74921;BME280;63483;47.384;8.860;2022-11-20T09:45:13;94350.94;;;3.98;48.84
74921;BME280;63483;47.384;8.860;2022-11-20T09:50:38;94347.78;;;4.04;49.24
74921;BME280;63483;47.384;8.860;2022-11-20T09:53:41;94346.81;;;4.05;48.33
74921;BME280;63483;47.384;8.860;2022-11-20T09:56:10;94342.00;;;4.11;48.91
74921;BME280;63483;47.384;8.860;2022-11-20T09:58:48;94354.66;;;4.14;48.79
74921;BME280;63483;47.384;8.860;2022-11-20T10:01:17;94354.53;;;4.15;47.81
74921;BME280;63483;47.384;8.860;2022-11-20T10:04:03;94346.50;;;4.08;47.75
74921;BME280;63483;47.384;8.860;2022-11-20T10:06:33;94347.56;;;4.16;47.98
74921;BME280;63483;47.384;8.860;2022-11-20T10:09:04;94348.91;;;4.20;48.00
74921;BME280;63483;47.384;8.860;2022-11-20T10:14:35;94338.03;;;4.16;48.36
74921;BME280;63483;47.384;8.860;2022-11-20T10:25:19;94311.06;;;4.09;47.66
74921;BME280;63483;47.384;8.860;2022-11-20T10:28:15;94321.88;;;4.04;47.22
74921;BME280;63483;47.384;8.860;2022-11-20T10:30:45;94322.66;;;4.05;47.61
74921;BME280;63483;47.384;8.860;2022-11-20T10:33:21;94321.78;;;3.96;47.38
74921;BME280;63483;47.384;8.860;2022-11-20T10:35:56;94332.09;;;4.06;47.65
74921;BME280;63483;47.384;8.860;2022-11-20T10:38:33;94333.53;;;4.08;47.19
74921;BME280;63483;47.384;8.860;2022-11-20T10:41:01;94342.97;;;4.10;47.09
74921;BME280;63483;47.384;8.860;2022-11-20T10:43:46;94345.66;;;4.18;46.74
74921;BME280;63483;47.384;8.860;2022-11-20T10:46:19;94343.81;;;4.28;47.16
74921;BME280;63483;47.384;8.860;2022-11-20T10:48:45;94340.91;;;4.31;46.97
74921;BME280;63483;47.384;8.860;2022-11-20T10:57:25;94322.72;;;2.35;45.97
74921;BME280;63483;47.384;8.860;2022-11-20T11:00:11;94322.31;;;2.01;47.08
74921;BME280;63483;47.384;8.860;2022-11-20T11:02:44;94329.63;;;1.76;45.56
74921;BME280;63483;47.384;8.860;2022-11-20T11:05:42;94325.28;;;1.76;47.67
74921;BME280;63483;47.384;8.860;2022-11-20T11:08:14;94311.97;;;1.40;46.91
74921;BME280;63483;47.384;8.860;2022-11-20T11:10:54;94311.91;;;1.61;48.38
74921;BME280;63483;47.384;8.860;2022-11-20T11:13:27;94310.56;;;1.57;46.27
74921;BME280;63483;47.384;8.860;2022-11-20T11:15:53;94310.44;;;1.28;46.78
74921;BME280;63483;47.384;8.860;2022-11-20T11:18:27;94299.41;;;1.47;48.65
74921;BME280;63483;47.384;8.860;2022-11-20T11:20:54;94301.88;;;1.68;49.25
74921;BME280;63483;47.384;8.860;2022-11-20T11:23:36;94295.34;;;1.64;46.49
74921;BME280;63483;47.384;8.860;2022-11-20T11:26:05;94286.94;;;1.82;47.95
74921;BME280;63483;47.384;8.860;2022-11-20T11:28:31;94283.94;;;1.67;46.86
74921;BME280;63483;47.384;8.860;2022-11-20T11:30:57;94282.75;;;1.71;45.94
74921;BME280;63483;47.384;8.860;2022-11-20T11:33:23;94276.50;;;1.83;45.92
74921;BME280;63483;47.384;8.860;2022-11-20T11:35:55;94276.63;;;2.01;45.09
74921;BME280;63483;47.384;8.860;2022-11-20T11:38:42;94273.34;;;2.09;45.93
74921;BME280;63483;47.384;8.860;2022-11-20T11:41:19;94277.72;;;2.18;47.88
74921;BME280;63483;47.384;8.860;2022-11-20T11:43:56;94273.63;;;2.35;51.95
74921;BME280;63483;47.384;8.860;2022-11-20T11:46:53;94267.88;;;2.51;51.35
74921;BME280;63483;47.384;8.860;2022-11-20T11:49:19;94258.28;;;2.81;47.47
74921;BME280;63483;47.384;8.860;2022-11-20T11:52:05;94264.06;;;3.02;49.62
74921;BME280;63483;47.384;8.860;2022-11-20T11:54:55;94255.91;;;3.25;53.42
74921;BME280;63483;47.384;8.860;2022-11-20T11:57:33;94259.03;;;3.75;51.34
74921;BME280;63483;47.384;8.860;2022-11-20T12:00:19;94244.38;;;4.01;47.88
74921;BME280;63483;47.384;8.860;2022-11-20T12:08:03;94237.78;;;4.25;45.52
74921;BME280;63483;47.384;8.860;2022-11-20T12:10:48;94242.56;;;4.38;45.51
74921;BME280;63483;47.384;8.860;2022-11-20T12:15:48;94238.47;;;4.53;45.61
74921;BME280;63483;47.384;8.860;2022-11-20T12:18:17;94236.88;;;4.60;45.00
74921;BME280;63483;47.384;8.860;2022-11-20T12:26:45;94223.66;;;4.72;45.69
74921;BME280;63483;47.384;8.860;2022-11-20T12:40:15;94215.94;;;4.80;45.12
74921;BME280;63483;47.384;8.860;2022-11-20T12:43:06;94213.53;;;4.87;44.84
74921;BME280;63483;47.384;8.860;2022-11-20T12:46:10;94204.63;;;4.89;44.65
74921;BME280;63483;47.384;8.860;2022-11-20T12:48:46;94202.81;;;4.90;44.36
74921;BME280;63483;47.384;8.860;2022-11-20T12:51:47;94194.75;;;4.93;43.80
74921;BME280;63483;47.384;8.860;2022-11-20T12:54:31;94186.81;;;4.94;43.91
74921;BME280;63483;47.384;8.860;2022-11-20T12:57:23;94187.50;;;4.97;43.57
74921;BME280;63483;47.384;8.860;2022-11-20T13:07:40;94178.59;;;4.99;43.55
74921;BME280;63483;47.384;8.860;2022-11-20T13:10:26;94178.59;;;4.99;43.33
74921;BME280;63483;47.384;8.860;2022-11-20T13:13:01;94167.91;;;5.02;42.92
74921;BME280;63483;47.384;8.860;2022-11-20T13:18:12;94164.00;;;5.06;43.40
74921;BME280;63483;47.384;8.860;2022-11-20T13:20:45;94151.38;;;5.11;41.98
74921;BME280;63483;47.384;8.860;2022-11-20T13:23:10;94153.81;;;5.13;43.29
74921;BME280;63483;47.384;8.860;2022-11-20T13:25:38;94158.34;;;5.19;43.14
74921;BME280;63483;47.384;8.860;2022-11-20T13:28:27;94153.97;;;5.20;43.56
74921;BME280;63483;47.384;8.860;2022-11-20T13:30:55;94150.91;;;5.24;43.67
74921;BME280;63483;47.384;8.860;2022-11-20T13:33:49;94149.59;;;5.28;43.05
74921;BME280;63483;47.384;8.860;2022-11-20T13:36:23;94152.03;;;5.30;43.58
74921;BME280;63483;47.384;8.860;2022-11-20T13:38:52;94153.03;;;5.29;43.10
74921;BME280;63483;47.384;8.860;2022-11-20T13:43:59;94146.84;;;5.22;43.18
74921;BME280;63483;47.384;8.860;2022-11-20T13:46:38;94143.59;;;5.20;42.86
74921;BME280;63483;47.384;8.860;2022-11-20T13:49:08;94134.84;;;5.21;43.47
74921;BME280;63483;47.384;8.860;2022-11-20T13:51:46;94133.88;;;5.22;42.92
74921;BME280;63483;47.384;8.860;2022-11-20T14:00:13;94128.88;;;5.37;43.00
74921;BME280;63483;47.384;8.860;2022-11-20T14:02:40;94123.03;;;5.43;43.34
74921;BME280;63483;47.384;8.860;2022-11-20T14:05:17;94122.38;;;5.49;42.20
74921;BME280;63483;47.384;8.860;2022-11-20T14:07:44;94110.38;;;5.56;43.03
74921;BME280;63483;47.384;8.860;2022-11-20T14:10:26;94106.97;;;5.56;41.45
74921;BME280;63483;47.384;8.860;2022-11-20T14:12:52;94110.03;;;5.59;41.97
74921;BME280;63483;47.384;8.860;2022-11-20T14:15:32;94117.03;;;5.59;41.37
74921;BME280;63483;47.384;8.860;2022-11-20T14:17:59;94116.06;;;5.52;40.97
74921;BME280;63483;47.384;8.860;2022-11-20T14:20:27;94113.13;;;5.55;40.91
74921;BME280;63483;47.384;8.860;2022-11-20T14:22:55;94104.38;;;5.56;41.08
74921;BME280;63483;47.384;8.860;2022-11-20T14:25:22;94098.19;;;5.57;40.88
74921;BME280;63483;47.384;8.860;2022-11-20T14:27:53;94096.88;;;5.61;39.77
74921;BME280;63483;47.384;8.860;2022-11-20T14:30:22;94099.16;;;5.64;40.94
74921;BME280;63483;47.384;8.860;2022-11-20T14:32:48;94082.13;;;5.53;39.81